メインページ
METAR-TAF:

METAR-TAF

空港 :

Hall Beach, ヌナブト準州, カナダ

緯度: 68-47N, 経度: 081-15W, 海抜: 8m

現時点の気象観測

当レポートは58分前の03:03(UTC)に作成
北西の風 14kt
気温 -24°C
湿度 76%
気圧 1000 hPa
視程: 4.8km
高度400ftの雲はほとんどない
高度9500ftの千切れ雲あり
煙霧

METAR: CYUX 130303Z AUTO 31014KT 3SM HZ FEW004 BKN095 M24/M27 A2953 RMK SLP001

時間: 23:01 (04:01 UTC)

予報

当レポートは3時間23分前の00:38(UTC)に作成
予報は13日の 01時(UTC)から 13日の 13時(UTC)まで有効
西/北西の風 12kt
視程: 10km
晴天
13日の 01時(UTC)から 13日の 09時(UTC)まで一時的に
視程: 8.0km
氷晶
13日の 0900時(UTC)から
西の風 12kt
視程: 10km
高度2500ftの雲は散在している
高度7000ftの千切れ雲あり
小雪
13日の 09時(UTC)から 13日の 13時(UTC)まで一時的に
視程: 3.2km
高度1500ftの雲は散在している
高度2500ftの曇り
弱いにわか雪

TAF: CYUX 130038Z 1301/1313 30012KT P6SM SKC TEMPO 1301/1309 5SM IC FM130900 28012KT P6SM -SN SCT025 BKN070 TEMPO 1309/1313 2SM -SHSN SCT015 OVC025 RMK NXT FCST BY 130700Z

4,000以上の空港の気象観測と天気予報(METAR報とTAF報)

利用可能な観測所は地図上に黄色い丸と赤い丸で示す。

丸の上にカーソルを重ねると観測所名を参照できる。

次にクリックすると気象観測と天気予報を参照できる。

マップの切り替え:黒色「×」印の緑ボタンをクリックして拡大、「-」印の緑ボタンをクリックして縮小、緑色の三角印をクリックして隣りの地図に切り替え


METAR-TAF: